createdAt,value
2022-09-07T00:00:49.829Z,66.23
2022-09-07T00:03:19.363Z,66.48
2022-09-07T00:05:49.517Z,66.56
2022-09-07T00:08:19.392Z,66.68
2022-09-07T00:10:53.810Z,66.26
2022-09-07T00:13:21.737Z,67.15
2022-09-07T00:15:49.898Z,67.22
2022-09-07T00:18:19.337Z,67.55
2022-09-07T00:20:47.571Z,68.13
2022-09-07T00:23:15.488Z,68.06
2022-09-07T00:25:43.438Z,68.40
2022-09-07T00:28:11.309Z,68.53
2022-09-07T00:30:42.370Z,69.08
2022-09-07T00:33:10.907Z,68.85
2022-09-07T00:35:43.875Z,68.75
2022-09-07T00:38:11.789Z,68.51
2022-09-07T00:40:39.752Z,68.61
2022-09-07T00:43:08.249Z,68.43
2022-09-07T00:45:36.231Z,68.17
2022-09-07T00:48:06.742Z,67.66
2022-09-07T00:50:40.832Z,67.79
2022-09-07T00:53:14.809Z,67.63
2022-09-07T00:55:44.760Z,66.91
2022-09-07T00:58:13.108Z,67.62
2022-09-07T01:00:42.421Z,67.39
2022-09-07T01:03:11.812Z,67.27
2022-09-07T01:05:43.313Z,67.23
2022-09-07T01:08:13.390Z,67.35
2022-09-07T01:10:41.729Z,67.39
2022-09-07T01:13:09.725Z,67.54
2022-09-07T01:15:45.133Z,67.46
2022-09-07T01:18:21.732Z,67.41
2022-09-07T01:21:01.952Z,68.11
2022-09-07T01:24:03.672Z,68.42
2022-09-07T01:27:09.888Z,68.16
2022-09-07T01:29:43.233Z,68.53
2022-09-07T01:32:14.842Z,68.20
2022-09-07T01:34:44.497Z,68.48
2022-09-07T01:37:18.194Z,68.34
2022-09-07T01:39:53.277Z,68.95
2022-09-07T01:42:23.022Z,68.97
2022-09-07T01:44:56.681Z,69.22
2022-09-07T01:47:30.173Z,69.13
2022-09-07T01:50:04.850Z,69.51
2022-09-07T01:52:36.929Z,69.39
2022-09-07T01:55:08.599Z,69.15
2022-09-07T01:57:42.202Z,69.95
2022-09-07T02:00:14.397Z,69.80
2022-09-07T02:02:45.874Z,69.74
2022-09-07T02:05:15.745Z,70.01
2022-09-07T02:07:46.966Z,69.96
2022-09-07T02:10:17.980Z,69.94
2022-09-07T02:12:49.431Z,70.03
2022-09-07T02:15:20.399Z,69.92
2022-09-07T02:17:51.459Z,70.18
2022-09-07T02:20:21.512Z,70.19
2022-09-07T02:22:51.564Z,70.23
2022-09-07T02:25:23.420Z,70.54
2022-09-07T02:27:53.057Z,70.80
2022-09-07T02:30:22.431Z,70.99
2022-09-07T02:32:50.593Z,71.05
2022-09-07T02:35:19.084Z,70.96
2022-09-07T02:37:47.086Z,70.58
2022-09-07T02:40:15.854Z,70.70
2022-09-07T02:42:44.703Z,71.24
2022-09-07T02:45:14.302Z,71.03
2022-09-07T02:47:54.580Z,70.99
2022-09-07T02:50:33.202Z,70.90
2022-09-07T02:53:14.722Z,70.78
2022-09-07T02:55:47.590Z,70.41
2022-09-07T02:58:23.285Z,70.48
2022-09-07T03:00:56.737Z,71.40
2022-09-07T03:03:32.155Z,72.19
2022-09-07T03:06:02.872Z,72.00
2022-09-07T03:08:33.379Z,72.43
2022-09-07T03:11:01.901Z,74.11
2022-09-07T03:13:31.042Z,74.27
2022-09-07T03:15:59.141Z,73.58
2022-09-07T03:18:29.216Z,73.35
2022-09-07T03:20:57.302Z,74.35
2022-09-07T03:23:28.298Z,74.86
2022-09-07T03:25:56.662Z,73.97
2022-09-07T03:28:24.636Z,74.80
2022-09-07T03:30:52.713Z,74.35
2022-09-07T03:33:20.653Z,74.23
2022-09-07T03:35:58.733Z,74.15
2022-09-07T03:38:26.714Z,74.36
2022-09-07T03:41:06.191Z,74.23
2022-09-07T03:43:35.088Z,74.66
2022-09-07T03:46:05.420Z,75.19
2022-09-07T03:48:34.445Z,74.88
2022-09-07T03:51:05.293Z,74.87
2022-09-07T03:53:34.156Z,74.73
2022-09-07T03:56:03.531Z,74.61
2022-09-07T03:58:32.749Z,74.04
2022-09-07T04:01:01.850Z,73.58
2022-09-07T04:03:30.208Z,73.74
2022-09-07T04:05:59.797Z,74.24
2022-09-07T04:08:30.462Z,74.79
2022-09-07T04:10:58.748Z,74.62
2022-09-07T04:13:27.285Z,74.83
2022-09-07T04:15:55.495Z,74.89
2022-09-07T04:18:24.348Z,75.15
2022-09-07T04:20:53.599Z,74.65
2022-09-07T04:23:21.875Z,74.36
2022-09-07T04:25:52.962Z,74.29
2022-09-07T04:28:21.741Z,74.08
2022-09-07T04:30:49.681Z,74.15
2022-09-07T04:33:17.729Z,73.75
2022-09-07T04:35:45.696Z,74.31
2022-09-07T04:38:15.398Z,74.06
2022-09-07T04:40:43.369Z,74.47
2022-09-07T04:43:14.093Z,74.49
2022-09-07T04:45:42.079Z,74.66
2022-09-07T04:48:10.038Z,74.50
2022-09-07T04:50:38.034Z,74.54
2022-09-07T04:53:06.010Z,74.73
2022-09-07T04:55:33.952Z,74.35
2022-09-07T04:58:02.188Z,74.22
2022-09-07T05:00:32.134Z,73.91
2022-09-07T05:03:00.152Z,74.22
2022-09-07T05:05:28.399Z,74.49
2022-09-07T05:07:56.624Z,74.82
2022-09-07T05:10:24.811Z,74.90
2022-09-07T05:12:52.814Z,75.74
2022-09-07T05:15:20.874Z,75.10
2022-09-07T05:17:51.085Z,75.61
2022-09-07T05:20:20.421Z,76.07
2022-09-07T05:22:48.680Z,76.01
2022-09-07T05:25:16.665Z,75.18
2022-09-07T05:27:44.812Z,75.61
2022-09-07T05:33:05.190Z,75.93
2022-09-07T05:35:33.149Z,75.91
2022-09-07T05:38:01.133Z,76.22
2022-09-07T05:40:35.131Z,76.52
2022-09-07T05:43:05.573Z,76.24
2022-09-07T05:45:33.534Z,76.22
2022-09-07T05:48:01.452Z,76.00
2022-09-07T05:50:30.812Z,75.87
2022-09-07T05:52:59.967Z,75.86
2022-09-07T05:55:30.880Z,76.16
2022-09-07T05:57:59.131Z,76.00
2022-09-07T06:00:27.317Z,75.98
2022-09-07T06:02:55.417Z,75.24
2022-09-07T06:05:23.662Z,74.69
2022-09-07T06:07:54.163Z,74.88
2022-09-07T06:13:09.989Z,74.35
2022-09-07T06:15:37.933Z,74.31
2022-09-07T06:18:05.938Z,73.98
2022-09-07T06:20:33.956Z,74.08
2022-09-07T06:23:03.319Z,74.82
2022-09-07T06:25:31.625Z,74.27
2022-09-07T06:27:59.710Z,74.28
2022-09-07T06:30:28.233Z,74.11
2022-09-07T06:32:56.304Z,73.99
2022-09-07T06:35:24.297Z,73.51
2022-09-07T06:37:52.500Z,74.08
2022-09-07T06:40:22.888Z,73.80
2022-09-07T06:42:50.949Z,73.22
2022-09-07T06:45:18.978Z,73.35
2022-09-07T06:47:47.252Z,73.07
2022-09-07T06:50:16.669Z,72.03
2022-09-07T06:55:33.961Z,71.75
2022-09-07T06:58:01.876Z,70.94
2022-09-07T07:00:29.861Z,70.32
2022-09-07T07:02:57.836Z,69.39
2022-09-07T07:05:25.921Z,67.30
2022-09-07T07:07:54.165Z,66.98
2022-09-07T07:10:25.102Z,66.66
2022-09-07T07:12:58.230Z,66.53
2022-09-07T07:15:28.105Z,66.12
2022-09-07T07:18:02.632Z,66.00
2022-09-07T07:20:42.807Z,65.89
2022-09-07T07:23:12.626Z,66.05
2022-09-07T07:25:40.569Z,65.94
2022-09-07T07:30:59.049Z,65.27
2022-09-07T07:33:30.924Z,64.83
2022-09-07T07:36:09.633Z,64.49
2022-09-07T07:44:19.533Z,61.22
2022-09-07T07:46:49.358Z,61.14
2022-09-07T07:49:18.191Z,60.63
2022-09-07T07:54:36.948Z,59.41
2022-09-07T07:57:05.978Z,59.43
2022-09-07T07:59:35.463Z,58.10
2022-09-07T08:02:05.368Z,57.67
2022-09-07T08:04:33.962Z,57.58
2022-09-07T08:07:05.582Z,57.75
2022-09-07T08:09:38.062Z,57.49
2022-09-07T08:12:06.477Z,56.51
2022-09-07T08:14:41.133Z,56.60
2022-09-07T08:17:10.435Z,56.62
2022-09-07T08:19:38.530Z,55.90
2022-09-07T08:22:06.483Z,55.89
2022-09-07T08:24:34.842Z,55.19
2022-09-07T08:27:03.615Z,55.26
2022-09-07T08:29:35.165Z,55.49
2022-09-07T08:32:06.691Z,55.75
2022-09-07T08:34:37.164Z,55.16
2022-09-07T08:37:05.439Z,54.31
2022-09-07T08:39:33.653Z,54.34
2022-09-07T08:42:21.046Z,54.32
2022-09-07T08:44:51.976Z,53.78
2022-09-07T08:47:31.759Z,53.51
2022-09-07T08:50:05.269Z,52.93
2022-09-07T08:52:44.144Z,53.81
2022-09-07T08:55:17.096Z,52.53
2022-09-07T08:57:48.931Z,52.20
2022-09-07T09:00:19.143Z,51.61
2022-09-07T09:05:43.350Z,52.95
2022-09-07T09:08:37.590Z,52.71
2022-09-07T09:11:10.174Z,52.47
2022-09-07T09:13:48.154Z,52.81
2022-09-07T09:16:19.824Z,52.32
2022-09-07T09:19:00.916Z,51.93
2022-09-07T09:21:29.165Z,51.75
2022-09-07T09:24:01.972Z,52.19
2022-09-07T09:26:32.209Z,52.02
2022-09-07T09:29:00.169Z,51.79
2022-09-07T09:31:33.796Z,52.03
2022-09-07T09:34:11.796Z,51.35
2022-09-07T09:36:45.793Z,50.92
2022-09-07T09:39:31.987Z,51.27
2022-09-07T09:42:02.925Z,50.34
2022-09-07T09:44:34.516Z,50.72
2022-09-07T09:49:55.457Z,50.27
2022-09-07T09:52:29.925Z,49.69
2022-09-07T09:55:23.605Z,50.31
2022-09-07T10:03:55.942Z,49.96
2022-09-07T10:06:27.785Z,50.87
2022-09-07T10:08:58.685Z,51.28
2022-09-07T10:14:37.772Z,49.85
2022-09-07T10:17:15.771Z,49.98
2022-09-07T10:19:50.423Z,50.48
2022-09-07T10:22:26.431Z,50.14
2022-09-07T10:24:54.423Z,50.50
2022-09-07T10:27:31.046Z,50.22
2022-09-07T10:29:59.611Z,50.26
2022-09-07T10:32:41.862Z,49.81
2022-09-07T10:35:16.269Z,49.56
2022-09-07T10:37:57.072Z,49.49
2022-09-07T10:40:35.234Z,48.84
2022-09-07T10:43:23.797Z,48.21
2022-09-07T10:46:56.366Z,47.85
2022-09-07T10:49:15.511Z,48.03
2022-09-07T10:51:59.280Z,47.68
2022-09-07T10:54:36.919Z,46.87
2022-09-07T10:57:10.750Z,46.60
2022-09-07T11:03:24.986Z,47.44
2022-09-07T11:05:38.478Z,46.51
2022-09-07T11:08:16.557Z,46.38
2022-09-07T11:10:49.845Z,45.30
2022-09-07T11:13:20.392Z,46.03
2022-09-07T11:15:51.595Z,44.96
2022-09-07T11:18:25.116Z,45.93
2022-09-07T11:20:56.221Z,46.01
2022-09-07T11:23:30.101Z,46.04
2022-09-07T11:26:03.533Z,46.64
2022-09-07T11:28:44.167Z,46.74
2022-09-07T11:31:18.834Z,46.32
2022-09-07T11:36:50.150Z,46.60
2022-09-07T11:39:21.693Z,47.46
2022-09-07T11:41:58.059Z,47.66
2022-09-07T11:44:27.664Z,47.51
2022-09-07T11:47:00.294Z,47.28
2022-09-07T11:49:28.746Z,46.78
2022-09-07T11:51:58.209Z,47.17
2022-09-07T11:54:42.988Z,47.20
2022-09-07T11:57:41.872Z,47.51
2022-09-07T12:00:12.892Z,46.38
2022-09-07T12:03:04.939Z,44.51
2022-09-07T12:05:52.516Z,43.15
2022-09-07T12:08:27.511Z,42.85
2022-09-07T12:11:04.521Z,43.93
2022-09-07T12:13:44.407Z,43.72
2022-09-07T12:16:19.041Z,42.79
2022-09-07T12:19:13.759Z,41.95
2022-09-07T12:21:44.401Z,41.77
2022-09-07T12:24:34.706Z,42.40
2022-09-07T12:27:03.172Z,42.53
2022-09-07T12:29:33.441Z,41.04
2022-09-07T12:34:54.723Z,40.70
2022-09-07T12:37:52.528Z,40.20
2022-09-07T12:40:49.035Z,40.42
2022-09-07T12:43:36.613Z,40.54
2022-09-07T12:46:19.691Z,39.64
2022-09-07T12:48:54.809Z,40.08
2022-09-07T12:54:25.310Z,39.47
2022-09-07T13:00:01.550Z,39.45
2022-09-07T13:02:46.517Z,39.08
2022-09-07T13:05:20.308Z,39.43
2022-09-07T13:08:08.991Z,38.63
2022-09-07T13:10:38.726Z,38.66
2022-09-07T13:13:08.064Z,38.81
2022-09-07T13:15:41.375Z,38.33
2022-09-07T13:18:14.013Z,37.71
2022-09-07T13:20:41.961Z,37.86
2022-09-07T13:23:24.882Z,37.35
2022-09-07T13:25:56.041Z,36.56
2022-09-07T13:28:28.744Z,37.02
2022-09-07T13:31:42.096Z,37.42
2022-09-07T13:34:39.863Z,37.28
2022-09-07T13:37:16.292Z,36.87
2022-09-07T13:39:47.496Z,37.11
2022-09-07T13:42:21.075Z,37.84
2022-09-07T13:44:57.089Z,37.98
2022-09-07T13:47:38.597Z,38.47
2022-09-07T13:50:25.155Z,38.24
2022-09-07T13:53:08.852Z,36.90
2022-09-07T13:55:42.409Z,37.56
2022-09-07T13:58:17.143Z,37.80
2022-09-07T14:00:55.716Z,37.14
2022-09-07T14:03:25.642Z,37.64
2022-09-07T14:06:15.737Z,37.08
2022-09-07T14:08:48.460Z,37.31
2022-09-07T14:11:20.621Z,36.93
2022-09-07T14:14:07.348Z,35.41
2022-09-07T14:16:35.586Z,36.14
2022-09-07T14:19:09.950Z,36.85
2022-09-07T14:21:39.329Z,36.25
2022-09-07T14:24:09.228Z,36.71
2022-09-07T14:26:37.092Z,36.66
2022-09-07T14:29:05.092Z,36.53
2022-09-07T14:31:33.072Z,35.99
2022-09-07T14:34:02.204Z,35.57
2022-09-07T14:36:48.496Z,36.00
2022-09-07T14:39:19.629Z,36.12
2022-09-07T14:41:48.163Z,35.05
2022-09-07T14:44:33.766Z,35.10
2022-09-07T14:47:05.721Z,35.00
2022-09-07T14:49:33.889Z,35.82
2022-09-07T14:52:02.142Z,35.06
2022-09-07T14:54:32.946Z,35.42
2022-09-07T14:57:06.817Z,35.73
2022-09-07T14:59:43.302Z,36.72
2022-09-07T15:02:33.307Z,35.76
2022-09-07T15:05:25.781Z,36.22
2022-09-07T15:07:56.224Z,36.11
2022-09-07T15:10:42.113Z,36.39
2022-09-07T15:13:30.258Z,35.90
2022-09-07T15:16:01.316Z,36.99
2022-09-07T15:18:57.677Z,36.33
2022-09-07T15:21:28.773Z,36.25
2022-09-07T15:23:58.717Z,36.52
2022-09-07T15:29:20.697Z,37.40
2022-09-07T15:32:01.149Z,37.05
2022-09-07T15:34:32.465Z,37.43
2022-09-07T15:37:01.722Z,37.97
2022-09-07T15:39:31.123Z,38.12
2022-09-07T15:42:59.087Z,37.74
2022-09-07T15:44:50.024Z,37.55
2022-09-07T15:50:08.113Z,37.99
2022-09-07T15:52:36.163Z,38.61
2022-09-07T15:55:04.105Z,37.84
2022-09-07T15:57:51.172Z,38.46
2022-09-07T16:00:20.961Z,38.88
2022-09-07T16:03:05.759Z,38.69
2022-09-07T16:05:34.890Z,38.81
2022-09-07T16:11:04.479Z,38.85
2022-09-07T16:13:34.604Z,38.94
2022-09-07T16:16:02.418Z,38.93
2022-09-07T16:18:31.837Z,38.95
2022-09-07T16:21:06.714Z,38.39
2022-09-07T16:23:34.671Z,38.78
2022-09-07T16:26:05.422Z,39.17
2022-09-07T16:28:35.306Z,39.02
2022-09-07T16:31:06.824Z,39.33
2022-09-07T16:33:37.001Z,39.68
2022-09-07T16:36:07.226Z,39.77
2022-09-07T16:38:44.462Z,40.35
2022-09-07T16:41:14.727Z,40.34
2022-09-07T16:43:44.036Z,40.53
2022-09-07T16:46:13.691Z,40.83
2022-09-07T16:48:42.175Z,41.08
2022-09-07T16:51:11.685Z,41.27
2022-09-07T16:53:39.825Z,41.15
2022-09-07T16:56:09.312Z,41.47
2022-09-07T16:58:39.032Z,41.39
2022-09-07T17:01:10.083Z,41.73
2022-09-07T17:03:38.647Z,41.80
2022-09-07T17:06:08.094Z,41.65
2022-09-07T17:08:37.049Z,42.09
2022-09-07T17:11:06.613Z,42.41
2022-09-07T17:13:35.973Z,42.42
2022-09-07T17:16:05.507Z,42.80
2022-09-07T17:21:23.389Z,42.68
2022-09-07T17:23:55.542Z,43.18
2022-09-07T17:26:27.327Z,43.08
2022-09-07T17:28:59.786Z,42.74
2022-09-07T17:34:19.572Z,43.50
2022-09-07T17:36:47.635Z,43.47
2022-09-07T17:39:19.499Z,43.40
2022-09-07T17:41:49.593Z,43.98
2022-09-07T17:44:17.689Z,44.22
2022-09-07T17:46:45.578Z,44.45
2022-09-07T17:49:16.353Z,44.42
2022-09-07T17:51:47.922Z,44.71
2022-09-07T17:54:27.508Z,45.03
2022-09-07T17:56:55.438Z,45.70
2022-09-07T18:02:13.841Z,45.67
2022-09-07T18:04:42.742Z,45.78
2022-09-07T18:07:12.278Z,45.73
2022-09-07T18:09:40.509Z,46.31
2022-09-07T18:12:10.486Z,46.66
2022-09-07T18:14:38.450Z,46.66
2022-09-07T18:17:06.756Z,46.93
2022-09-07T18:19:36.343Z,47.27
2022-09-07T18:22:05.028Z,47.43
2022-09-07T18:24:36.929Z,48.12
2022-09-07T18:27:05.695Z,47.81
2022-09-07T18:29:34.506Z,48.19
2022-09-07T18:32:05.592Z,47.90
2022-09-07T18:34:35.823Z,48.63
2022-09-07T18:37:03.688Z,48.68
2022-09-07T18:39:32.374Z,48.41
2022-09-07T18:42:01.629Z,48.78
2022-09-07T18:47:28.056Z,48.68
2022-09-07T18:49:57.606Z,48.93
2022-09-07T18:55:13.689Z,50.46
2022-09-07T18:57:42.946Z,51.00
2022-09-07T19:00:13.118Z,51.97
2022-09-07T19:02:42.184Z,53.73
2022-09-07T19:07:59.561Z,53.29
2022-09-07T19:10:27.585Z,53.76
2022-09-07T19:12:56.858Z,54.23
2022-09-07T19:15:24.699Z,54.69
2022-09-07T19:17:52.595Z,55.06
2022-09-07T19:20:20.583Z,55.06
2022-09-07T19:22:49.050Z,54.81
2022-09-07T19:25:17.460Z,54.52
2022-09-07T19:27:45.537Z,54.83
2022-09-07T19:30:17.430Z,55.11
2022-09-07T19:32:45.527Z,55.74
2022-09-07T19:35:13.403Z,54.52
2022-09-07T19:37:41.184Z,54.39
2022-09-07T19:40:12.716Z,54.78
2022-09-07T19:42:44.852Z,54.34
2022-09-07T19:45:15.105Z,53.79
2022-09-07T19:47:42.976Z,54.14
2022-09-07T19:50:11.138Z,53.53
2022-09-07T19:52:39.132Z,54.20
2022-09-07T19:55:08.080Z,53.69
2022-09-07T19:57:35.876Z,53.62
2022-09-07T20:00:04.594Z,54.57
2022-09-07T20:02:34.831Z,54.74
2022-09-07T20:05:02.796Z,54.88
2022-09-07T20:07:30.874Z,55.52
2022-09-07T20:09:58.660Z,54.83
2022-09-07T20:12:26.921Z,54.33
2022-09-07T20:14:54.865Z,53.94
2022-09-07T20:17:22.920Z,54.26
2022-09-07T20:19:52.182Z,54.69
2022-09-07T20:22:20.284Z,55.14
2022-09-07T20:24:48.916Z,54.72
2022-09-07T20:27:16.714Z,54.53
2022-09-07T20:29:44.810Z,54.37
2022-09-07T20:32:13.462Z,54.51
2022-09-07T20:34:41.288Z,54.54
2022-09-07T20:37:10.534Z,54.52
2022-09-07T20:39:39.505Z,54.99
2022-09-07T20:42:07.991Z,55.05
2022-09-07T20:44:35.836Z,55.02
2022-09-07T20:47:03.823Z,54.69
2022-09-07T20:49:32.063Z,54.94
2022-09-07T20:51:59.866Z,55.06
2022-09-07T20:54:29.059Z,55.32
2022-09-07T20:57:00.001Z,55.25
2022-09-07T20:59:29.898Z,55.93
2022-09-07T21:01:58.028Z,56.03
2022-09-07T21:04:27.429Z,56.14
2022-09-07T21:06:55.378Z,56.01
2022-09-07T21:09:23.164Z,56.16
2022-09-07T21:11:56.785Z,56.19
2022-09-07T21:14:25.398Z,56.08
2022-09-07T21:16:53.193Z,56.42
2022-09-07T21:19:21.209Z,56.85
2022-09-07T21:21:49.350Z,56.83
2022-09-07T21:24:19.370Z,56.95
2022-09-07T21:26:48.337Z,56.74
2022-09-07T21:29:20.243Z,56.99
2022-09-07T21:31:48.652Z,56.57
2022-09-07T21:34:17.362Z,56.97
2022-09-07T21:36:45.458Z,56.75
2022-09-07T21:39:14.888Z,56.78
2022-09-07T21:41:43.127Z,56.96
2022-09-07T21:44:12.820Z,56.50
2022-09-07T21:46:43.135Z,56.22
2022-09-07T21:49:11.270Z,56.15
2022-09-07T21:51:39.251Z,56.28
2022-09-07T21:54:07.455Z,56.41
2022-09-07T21:56:35.662Z,56.57
2022-09-07T21:59:04.698Z,57.29
2022-09-07T22:01:32.921Z,57.59
2022-09-07T22:04:04.526Z,57.59
2022-09-07T22:06:33.248Z,57.10
2022-09-07T22:09:01.710Z,57.60
2022-09-07T22:11:30.527Z,57.52
2022-09-07T22:14:00.356Z,57.39
2022-09-07T22:16:28.439Z,57.65
2022-09-07T22:18:56.426Z,57.73
2022-09-07T22:21:27.699Z,57.87
2022-09-07T22:23:57.101Z,58.13
2022-09-07T22:26:26.753Z,58.15
2022-09-07T22:28:54.878Z,58.13
2022-09-07T22:31:24.629Z,58.51
2022-09-07T22:33:54.095Z,58.53
2022-09-07T22:36:23.448Z,58.88
2022-09-07T22:38:55.953Z,58.93
2022-09-07T22:41:26.573Z,59.43
2022-09-07T22:43:54.605Z,59.76
2022-09-07T22:46:24.425Z,60.49
2022-09-07T22:48:54.119Z,61.14
2022-09-07T22:51:23.234Z,61.34
2022-09-07T22:53:52.596Z,61.60
2022-09-07T22:56:22.201Z,61.72
2022-09-07T22:58:52.126Z,62.02
2022-09-07T23:01:20.586Z,62.37
2022-09-07T23:03:48.822Z,62.58
2022-09-07T23:06:24.471Z,62.59
2022-09-07T23:08:54.853Z,62.43
2022-09-07T23:11:25.749Z,62.63
2022-09-07T23:13:53.984Z,62.77
2022-09-07T23:16:22.640Z,63.02
2022-09-07T23:18:50.546Z,63.58
2022-09-07T23:21:18.371Z,64.17
2022-09-07T23:23:50.680Z,65.09
2022-09-07T23:26:20.384Z,65.39
2022-09-07T23:28:52.285Z,65.97
2022-09-07T23:31:20.866Z,66.44
2022-09-07T23:33:49.694Z,66.91
2022-09-07T23:36:19.429Z,67.69
2022-09-07T23:38:47.991Z,67.45
2022-09-07T23:41:18.287Z,68.05
2022-09-07T23:43:48.997Z,67.80
2022-09-07T23:46:18.536Z,67.85
2022-09-07T23:48:48.631Z,67.93
2022-09-07T23:51:22.795Z,68.18
2022-09-07T23:53:51.802Z,68.10
2022-09-07T23:56:19.655Z,67.83
2022-09-07T23:58:48.932Z,67.74
